Shanghai Pudong International Airport
ZSPD : now visible

Airfield :











YOU CAN JOIN US ON...

 
LOGIN :

Register | Disclaimer

   EN    FR    IT 

 









Legend :    VFR   Marginal VFR   IFR   Intensive IFR   Very Intensive IFR
Visi :
Ceiling :
>= 8 km
>= 3000ft
5 to 8 km
1000 to 3000 ft
1500m to 5 km
500 to 1000 ft
800 to 1500m
200 to 500 ft
< 800m
< 200 ft
Symbols :   Thunderstorms  Fog  Heavy snow  Heavy precipitations  Wind > 20 kt






- Airport Elevation : 13 ft
- IATA code : PVG


ZSPD - Shanghai Pudong International

CURRENT METAR :
  • 210500Z 03004MPS 360V100 CAVOK 17/09 Q1025 NOSIG

EXPIRED METARs :
  • 210430Z 04004MPS 360V070 CAVOK 17/09 Q1025 NOSIG
  • 210400Z 09004MPS 050V120 CAVOK 17/08 Q1026 NOSIG
  • 210330Z 08004MPS 010V120 CAVOK 17/08 Q1026 NOSIG
  • 210300Z 08004MPS 050V110 CAVOK 17/08 Q1027 NOSIG
  • 210230Z 07005MPS 040V100 CAVOK 17/08 Q1027 NOSIG

TAF TAF ZSPD
Valid from the 21 at 00:00 until the 22 at 00:00 UTC


202112Z 2100/2124 08004MPS 5000 HZ SCT020 TX18/2106Z TN11/2121Z



MET'MAP, your aeronautical weather chart ! - Copyright ORBIFLY December 2007 - Disclaimer

ORBIFLY MET'MAP TEAM :

Programming & Development : Alexandra Zaïnal
Concept & Development : Baudouin d'Aumeries
Co-Development & Prog : Marc-Olivier Méhu
Technical & hardware support : Manuel Goepfert

Contact : metmap@orbifly.com




SOURCES & CREDITS :

   NOAA       Earth
Advisory